Time;durP1;ratioP1;P1;durP2;ratioP2;P2;SDS_P1;SDS_P2;PMS_P1;PMS_P2;Temp;Humidity;BMP_temperature;BMP_pressure;BME280_temperature;BME280_humidity;BME280_pressure;Samples;Min_cycle;Max_cycle;Signal;HPM_P1;HPM_P2
2022/06/17 00:01:06;;;;;;;8.85;2.88;;;28.70;99.90;;;;;;5107365;28;20036;-55
2022/06/17 00:03:34;;;;;;;11.07;3.03;;;28.70;99.90;;;;;;5105574;28;20023;-55
2022/06/17 00:06:03;;;;;;;8.38;2.85;;;28.80;99.90;;;;;;5112226;28;20030;-54
2022/06/17 00:08:37;;;;;;;16.13;3.50;;;28.80;99.90;;;;;;5093280;28;20032;-55
2022/06/17 00:11:05;;;;;;;9.60;2.65;;;28.90;99.90;;;;;;5092318;28;20012;-57
2022/06/17 00:13:31;;;;;;;8.50;2.08;;;28.80;99.90;;;;;;5092060;28;20073;-55
2022/06/17 00:15:57;;;;;;;7.78;2.50;;;28.70;99.90;;;;;;5100827;28;20100;-55
2022/06/17 00:18:24;;;;;;;7.82;2.20;;;28.60;99.90;;;;;;5096987;28;20038;-56
2022/06/17 00:20:50;;;;;;;8.57;3.03;;;28.50;99.90;;;;;;5091907;28;20017;-57
2022/06/17 00:23:22;;;;;;;5.68;2.40;;;28.60;99.90;;;;;;5093568;28;20036;-56
2022/06/17 00:25:49;;;;;;;7.95;2.70;;;28.60;99.90;;;;;;5098726;28;20040;-57
2022/06/17 00:28:21;;;;;;;6.32;2.45;;;28.60;99.90;;;;;;5106584;28;20026;-56
2022/06/17 00:30:48;;;;;;;7.20;2.50;;;28.60;99.90;;;;;;5091928;28;20032;-57
2022/06/17 00:33:15;;;;;;;12.80;2.97;;;28.60;99.90;;;;;;5091656;28;20390;-57
2022/06/17 00:35:53;;;;;;;9.88;2.45;;;28.40;99.90;;;;;;5091549;28;20032;-57
2022/06/17 00:38:28;;;;;;;10.43;3.00;;;28.30;99.90;;;;;;5091783;28;20024;-56
2022/06/17 00:40:57;;;;;;;13.77;2.88;;;28.20;99.90;;;;;;5101780;28;20437;-57
2022/06/17 00:43:36;;;;;;;9.30;2.15;;;28.20;99.90;;;;;;5101232;28;20046;-56
2022/06/17 00:46:20;;;;;;;11.77;2.60;;;28.10;99.90;;;;;;5104516;28;20035;-56
2022/06/17 00:49:24;;;;;;;13.80;2.42;;;28.00;99.90;;;;;;5087505;28;20069;-56
2022/06/17 00:52:00;;;;;;;15.05;3.10;;;28.00;99.90;;;;;;5091294;28;20102;-57
2022/06/17 00:54:32;;;;;;;13.55;2.25;;;27.90;99.90;;;;;;5101569;28;20099;-55
2022/06/17 00:56:58;;;;;;;7.40;2.33;;;27.80;99.90;;;;;;5098010;28;20039;-56
2022/06/17 00:59:25;;;;;;;9.43;2.45;;;27.70;99.90;;;;;;5076506;28;20062;-55
2022/06/17 01:01:56;;;;;;;12.90;2.55;;;27.80;99.90;;;;;;5087423;28;20086;-55
2022/06/17 01:04:40;;;;;;;13.38;2.63;;;27.70;99.90;;;;;;5090867;28;20047;-56
2022/06/17 01:07:18;;;;;;;14.70;2.42;;;27.70;99.90;;;;;;5093955;28;20027;-55
2022/06/17 01:09:58;;;;;;;8.93;2.63;;;27.70;99.90;;;;;;5100490;28;20017;-56
2022/06/17 01:12:54;;;;;;;11.48;2.38;;;27.60;99.90;;;;;;5109510;28;20497;-55
2022/06/17 01:15:22;;;;;;;12.70;2.72;;;27.60;99.90;;;;;;5095594;28;20116;-55
2022/06/17 01:17:49;;;;;;;12.60;2.15;;;27.70;99.90;;;;;;5080032;28;20024;-56
2022/06/17 01:20:16;;;;;;;13.35;2.60;;;27.70;99.90;;;;;;5090400;28;20020;-55
2022/06/17 01:22:51;;;;;;;12.98;2.33;;;27.80;99.90;;;;;;5073241;28;20077;-54
2022/06/17 01:25:22;;;;;;;11.82;2.00;;;27.90;99.90;;;;;;5104838;28;20032;-54
2022/06/17 01:27:57;;;;;;;12.65;1.80;;;28.00;99.90;;;;;;5090353;28;20020;-54
2022/06/17 01:30:27;;;;;;;9.38;2.22;;;28.10;99.90;;;;;;5091009;28;20822;-55
2022/06/17 01:33:06;;;;;;;11.25;2.05;;;28.10;99.90;;;;;;5090795;28;20052;-54
2022/06/17 01:35:49;;;;;;;9.38;1.60;;;28.20;99.90;;;;;;5095777;28;20473;-55
2022/06/17 01:38:15;;;;;;;10.73;1.83;;;28.30;99.90;;;;;;5089335;28;20120;-56
2022/06/17 01:40:42;;;;;;;9.18;1.83;;;28.30;99.90;;;;;;5090939;28;20107;-55
2022/06/17 01:43:12;;;;;;;10.10;1.98;;;28.40;99.90;;;;;;5105074;28;20077;-55
2022/06/17 01:45:49;;;;;;;14.82;2.20;;;28.50;99.90;;;;;;5089751;28;20039;-56
2022/06/17 01:48:18;;;;;;;7.85;1.80;;;28.60;99.90;;;;;;5090609;28;20357;-56
2022/06/17 01:50:46;;;;;;;5.70;1.92;;;28.70;99.90;;;;;;5090829;28;20039;-55
2022/06/17 01:53:16;;;;;;;13.48;2.30;;;28.70;99.90;;;;;;5090537;28;20036;-56
2022/06/17 01:55:47;;;;;;;15.98;2.17;;;28.80;99.90;;;;;;5084879;28;20017;-55
2022/06/17 01:58:18;;;;;;;9.82;2.13;;;28.90;99.90;;;;;;5090202;28;20024;-56
2022/06/17 02:00:45;;;;;;;9.15;1.80;;;28.90;99.90;;;;;;5112829;22;20097;-47
2022/06/17 02:03:20;;;;;;;10.40;2.72;;;29.00;99.90;;;;;;5109090;28;20047;-48
2022/06/17 02:05:56;;;;;;;11.48;2.42;;;29.00;99.90;;;;;;5110386;28;20031;-47
2022/06/17 02:08:22;;;;;;;14.73;2.55;;;29.10;99.90;;;;;;5110347;28;20016;-48
2022/06/17 02:10:49;;;;;;;10.77;2.03;;;29.10;99.90;;;;;;5110420;28;20375;-48
2022/06/17 02:13:16;;;;;;;9.63;2.17;;;29.20;99.90;;;;;;5110349;28;20035;-47
2022/06/17 02:15:42;;;;;;;13.70;2.42;;;29.10;99.90;;;;;;5110996;28;20108;-48
2022/06/17 02:18:15;;;;;;;13.63;2.23;;;29.20;99.90;;;;;;5109729;28;20030;-48
2022/06/17 02:20:41;;;;;;;8.80;1.67;;;29.20;99.90;;;;;;5109615;28;20047;-47
2022/06/17 02:23:07;;;;;;;12.20;2.17;;;29.30;99.90;;;;;;5110532;28;20023;-48
2022/06/17 02:25:42;;;;;;;13.02;2.00;;;29.30;99.90;;;;;;5111298;28;20038;-48
2022/06/17 02:28:09;;;;;;;6.95;1.90;;;29.30;99.90;;;;;;5111079;28;20107;-48
2022/06/17 02:30:36;;;;;;;7.50;1.92;;;29.40;99.90;;;;;;5110456;28;20019;-48
2022/06/17 02:33:05;;;;;;;5.88;2.20;;;29.40;99.90;;;;;;5111230;28;20483;-48
2022/06/17 02:35:46;;;;;;;8.02;2.28;;;29.40;99.90;;;;;;5111267;28;20054;-48
2022/06/17 02:38:19;;;;;;;9.77;2.17;;;29.50;99.90;;;;;;5113158;28;20094;-47
2022/06/17 02:40:49;;;;;;;10.30;2.25;;;29.50;99.90;;;;;;5114816;28;20023;-48
2022/06/17 02:43:19;;;;;;;12.02;3.05;;;29.50;99.90;;;;;;5114659;28;20012;-48
2022/06/17 02:46:16;;;;;;;8.45;2.13;;;29.50;99.90;;;;;;5114657;28;20024;-48
2022/06/17 02:48:48;;;;;;;12.70;2.33;;;29.50;99.90;;;;;;5094510;28;20104;-48
2022/06/17 02:51:14;;;;;;;11.23;2.42;;;29.60;99.90;;;;;;5114606;28;20095;-48
2022/06/17 02:53:42;;;;;;;8.07;2.75;;;29.60;99.90;;;;;;5114477;28;20379;-48
2022/06/17 02:56:18;;;;;;;9.80;2.72;;;29.60;99.90;;;;;;5114617;28;20024;-49
2022/06/17 03:04:28;;;;;;;8.50;1.77;;;29.60;99.90;;;;;;5180148;23;20138;-55
2022/06/17 03:06:54;;;;;;;13.63;3.03;;;29.70;99.90;;;;;;4975182;28;20033;-55
2022/06/17 03:09:27;;;;;;;11.05;2.35;;;29.70;99.90;;;;;;4975199;28;20023;-55
2022/06/17 03:12:04;;;;;;;14.77;2.92;;;29.90;99.90;;;;;;4974886;28;20031;-56
2022/06/17 03:14:35;;;;;;;11.18;2.00;;;29.80;99.90;;;;;;4974903;28;20397;-55
2022/06/17 03:17:06;;;;;;;12.55;2.95;;;29.60;99.90;;;;;;4957471;28;20041;-55
2022/06/17 03:19:36;;;;;;;13.30;2.47;;;29.20;99.90;;;;;;4957223;28;20081;-55
2022/06/17 03:22:06;;;;;;;12.85;2.30;;;29.00;99.90;;;;;;4974764;28;20575;-55
2022/06/17 03:24:51;;;;;;;13.90;2.35;;;28.60;99.90;;;;;;4974532;28;20398;-55
2022/06/17 03:27:31;;;;;;;8.27;2.15;;;28.30;99.90;;;;;;4957171;28;20442;-55
2022/06/17 03:30:00;;;;;;;14.02;2.90;;;27.90;99.90;;;;;;4974527;28;20022;-55
2022/06/17 03:32:32;;;;;;;13.27;2.90;;;27.80;99.90;;;;;;4974460;28;20035;-55
2022/06/17 03:34:58;;;;;;;12.57;2.83;;;27.80;99.90;;;;;;4974475;28;20027;-55
2022/06/17 03:38:01;;;;;;;10.75;2.40;;;27.80;99.90;;;;;;4957036;28;20533;-55
2022/06/17 03:40:41;;;;;;;17.60;2.53;;;27.80;99.90;;;;;;4974540;28;20023;-55
2022/06/17 03:43:29;;;;;;;15.98;2.85;;;27.90;99.90;;;;;;4974238;28;20026;-54
2022/06/17 03:46:07;;;;;;;14.07;3.30;;;27.80;99.90;;;;;;4972167;28;20062;-55
2022/06/17 03:48:49;;;;;;;10.88;2.28;;;27.80;99.90;;;;;;4973862;28;20035;-54
2022/06/17 03:51:19;;;;;;;12.75;3.25;;;27.80;99.90;;;;;;4974314;28;20071;-55
2022/06/17 03:53:46;;;;;;;13.25;2.42;;;27.70;99.90;;;;;;4956769;28;20360;-55
2022/06/17 03:56:33;;;;;;;9.10;2.22;;;27.80;99.90;;;;;;4974058;28;20066;-54
2022/06/17 03:59:06;;;;;;;12.43;2.47;;;27.80;99.90;;;;;;4974135;28;20046;-55
2022/06/17 04:01:37;;;;;;;10.05;2.88;;;27.80;99.90;;;;;;4974393;28;20023;-54
2022/06/17 04:04:19;;;;;;;14.20;2.53;;;27.70;99.90;;;;;;4972850;28;20086;-55
2022/06/17 04:06:48;;;;;;;12.43;3.47;;;27.80;99.90;;;;;;4973805;28;20027;-55
2022/06/17 04:09:24;;;;;;;8.18;2.63;;;27.70;99.90;;;;;;4974008;28;20938;-55
2022/06/17 04:11:54;;;;;;;13.20;2.80;;;27.70;99.90;;;;;;4974126;28;20370;-55
2022/06/17 04:14:49;;;;;;;12.88;3.45;;;27.70;99.90;;;;;;4974014;28;20140;-55
2022/06/17 04:17:40;;;;;;;14.65;3.08;;;27.70;99.90;;;;;;4973740;28;20018;-55
2022/06/17 04:20:37;;;;;;;13.38;2.90;;;27.70;99.90;;;;;;4973627;28;20379;-55
2022/06/17 04:23:17;;;;;;;10.75;2.63;;;27.70;99.90;;;;;;4973497;28;20082;-56
2022/06/17 04:25:52;;;;;;;9.73;2.25;;;27.70;99.90;;;;;;4973423;28;20045;-56
2022/06/17 04:28:41;;;;;;;16.73;2.97;;;27.70;99.90;;;;;;4973288;28;20026;-56
2022/06/17 04:31:13;;;;;;;10.40;2.78;;;27.70;99.90;;;;;;4973320;28;20031;-56
2022/06/17 04:34:01;;;;;;;8.25;2.75;;;27.70;99.90;;;;;;4973281;28;20034;-56
2022/06/17 04:36:33;;;;;;;9.48;2.50;;;27.70;99.90;;;;;;4973128;28;20077;-56
2022/06/17 04:39:21;;;;;;;9.15;2.40;;;27.80;99.90;;;;;;4972681;28;20034;-57
2022/06/17 04:41:49;;;;;;;10.30;2.97;;;27.80;99.90;;;;;;4971648;28;20046;-56
2022/06/17 04:44:15;;;;;;;8.30;2.28;;;27.90;99.90;;;;;;4973098;28;20082;-56
2022/06/17 04:46:53;;;;;;;13.15;2.60;;;27.90;99.90;;;;;;4973196;28;20026;-56
2022/06/17 04:49:25;;;;;;;14.02;2.70;;;27.90;99.90;;;;;;4972511;28;20610;-55
2022/06/17 04:51:57;;;;;;;12.95;2.60;;;27.90;99.90;;;;;;4973177;28;20018;-55
2022/06/17 04:54:23;;;;;;;11.10;2.53;;;27.90;99.90;;;;;;4973191;28;20433;-55
2022/06/17 04:56:51;;;;;;;10.77;2.30;;;27.90;99.90;;;;;;4972952;28;20039;-55
2022/06/17 04:59:22;;;;;;;15.30;2.95;;;28.00;99.90;;;;;;4973104;28;20054;-55
2022/06/17 05:01:49;;;;;;;14.23;2.55;;;28.00;99.90;;;;;;4971869;28;20375;-55
2022/06/17 05:04:16;;;;;;;9.27;2.95;;;28.00;99.90;;;;;;4955205;28;20133;-55
2022/06/17 05:06:42;;;;;;;11.50;3.35;;;28.00;99.90;;;;;;4972884;28;20030;-56
2022/06/17 05:09:31;;;;;;;10.77;2.58;;;28.00;99.90;;;;;;4972646;28;20033;-55
2022/06/17 05:12:07;;;;;;;14.00;2.90;;;28.10;99.90;;;;;;4972800;28;20034;-55
2022/06/17 05:14:52;;;;;;;6.93;2.42;;;28.10;99.90;;;;;;4972620;28;20026;-55
2022/06/17 05:17:18;;;;;;;13.95;2.97;;;28.10;99.90;;;;;;4972639;28;20022;-55
2022/06/17 05:19:44;;;;;;;7.43;1.98;;;28.20;99.90;;;;;;4972474;28;20033;-55
2022/06/17 05:22:15;;;;;;;10.32;2.65;;;28.30;99.90;;;;;;4972387;28;20101;-55
2022/06/17 05:24:42;;;;;;;9.88;2.13;;;28.40;99.90;;;;;;4972643;28;20038;-54
2022/06/17 05:27:09;;;;;;;10.45;2.25;;;28.40;99.90;;;;;;4972499;28;20026;-54
2022/06/17 05:29:35;;;;;;;9.40;2.75;;;28.40;99.90;;;;;;4972539;28;20035;-55
2022/06/17 05:32:01;;;;;;;12.38;2.22;;;28.40;99.90;;;;;;4972304;28;20023;-54
2022/06/17 05:34:27;;;;;;;10.48;2.83;;;28.40;99.90;;;;;;4972297;28;20474;-55
2022/06/17 05:36:52;;;;;;;12.80;2.97;;;28.50;99.90;;;;;;4972616;28;20046;-55
2022/06/17 05:39:18;;;;;;;10.07;2.28;;;28.40;99.90;;;;;;4972427;28;20055;-55
2022/06/17 05:41:44;;;;;;;14.43;2.58;;;28.40;99.90;;;;;;4972166;28;20027;-55
2022/06/17 05:44:10;;;;;;;12.55;2.65;;;28.40;99.90;;;;;;4972113;28;20367;-55
2022/06/17 05:46:36;;;;;;;10.25;2.65;;;28.50;99.90;;;;;;4972220;28;20038;-55
2022/06/17 05:49:02;;;;;;;16.45;4.05;;;28.50;99.90;;;;;;4972019;28;20035;-55
2022/06/17 05:51:27;;;;;;;15.93;2.70;;;28.50;99.90;;;;;;4972319;28;20027;-55
2022/06/17 05:53:53;;;;;;;16.25;3.85;;;28.50;99.90;;;;;;4972432;28;20023;-55
2022/06/17 05:56:19;;;;;;;19.27;7.15;;;28.50;99.90;;;;;;4972384;28;20410;-56
2022/06/17 05:58:45;;;;;;;15.07;3.35;;;28.40;99.90;;;;;;4972201;28;20023;-55
2022/06/17 06:01:11;;;;;;;8.07;2.83;;;28.30;99.90;;;;;;4972099;28;20478;-54
2022/06/17 06:03:36;;;;;;;18.73;2.65;;;28.10;99.90;;;;;;4971817;28;20054;-54
2022/06/17 06:06:02;;;;;;;15.35;3.08;;;28.10;99.90;;;;;;4954755;28;20048;-54
2022/06/17 06:08:28;;;;;;;19.40;2.90;;;28.00;99.90;;;;;;4971955;28;20034;-54
2022/06/17 06:10:54;;;;;;;13.05;3.00;;;27.90;99.90;;;;;;4972138;28;20031;-54
2022/06/17 06:13:22;;;;;;;13.68;2.65;;;27.90;99.90;;;;;;4974638;28;20114;-55
2022/06/17 06:15:51;;;;;;;13.55;3.38;;;28.00;99.90;;;;;;4975716;28;20081;-54
2022/06/17 06:18:23;;;;;;;13.85;2.58;;;27.90;99.90;;;;;;4975750;28;20045;-54
2022/06/17 06:20:50;;;;;;;11.43;3.53;;;27.90;99.90;;;;;;4955281;28;20133;-54
2022/06/17 06:23:16;;;;;;;11.05;2.63;;;27.80;99.90;;;;;;4975590;28;20041;-55
2022/06/17 06:25:42;;;;;;;11.70;2.75;;;27.70;99.90;;;;;;4975337;28;20502;-55
2022/06/17 06:28:20;;;;;;;10.48;2.53;;;27.80;99.90;;;;;;4975395;28;20547;-55
2022/06/17 06:30:56;;;;;;;17.92;3.53;;;27.80;99.90;;;;;;4975542;28;20035;-55
2022/06/17 06:33:23;;;;;;;13.83;2.80;;;27.70;99.90;;;;;;4975827;28;20093;-55
2022/06/17 06:35:49;;;;;;;9.48;2.50;;;27.80;99.90;;;;;;4975398;28;20034;-55
2022/06/17 06:38:14;;;;;;;15.85;2.60;;;27.80;99.90;;;;;;4975155;28;20035;-55
2022/06/17 06:40:41;;;;;;;20.40;3.63;;;27.70;99.90;;;;;;4975277;28;20475;-55
2022/06/17 06:43:19;;;;;;;16.20;3.67;;;27.80;99.90;;;;;;4975029;28;20030;-55
2022/06/17 06:45:48;;;;;;;16.27;4.57;;;27.90;99.90;;;;;;4975200;28;20046;-55
2022/06/17 06:48:16;;;;;;;10.90;2.75;;;27.90;99.90;;;;;;4975195;28;20038;-55
2022/06/17 06:50:42;;;;;;;13.18;2.63;;;28.00;99.90;;;;;;4975122;28;20027;-55
2022/06/17 06:53:08;;;;;;;17.45;5.40;;;28.00;99.90;;;;;;4975220;28;20023;-55
2022/06/17 06:55:35;;;;;;;12.35;3.45;;;28.10;99.90;;;;;;4975140;28;20386;-55
2022/06/17 06:58:23;;;;;;;14.55;3.25;;;28.10;99.90;;;;;;4974930;28;20082;-55
2022/06/17 07:00:54;;;;;;;9.85;3.08;;;28.10;99.90;;;;;;4974899;28;20027;-55
2022/06/17 07:03:21;;;;;;;15.55;3.22;;;28.10;99.90;;;;;;4975048;28;20035;-55
2022/06/17 07:05:49;;;;;;;10.10;2.70;;;28.10;99.90;;;;;;4975007;28;20454;-55
2022/06/17 07:08:18;;;;;;;18.77;2.72;;;28.10;99.90;;;;;;4975096;28;20086;-54
2022/06/17 07:10:46;;;;;;;12.70;3.30;;;28.10;99.90;;;;;;4957391;28;20027;-55
2022/06/17 07:13:12;;;;;;;18.15;2.97;;;28.10;99.90;;;;;;4974877;28;20313;-55
2022/06/17 07:15:41;;;;;;;12.35;2.55;;;28.20;99.90;;;;;;4974812;28;20490;-55
2022/06/17 07:18:12;;;;;;;12.68;3.03;;;28.20;99.90;;;;;;4974733;28;20027;-55
2022/06/17 07:20:42;;;;;;;15.77;2.92;;;28.30;99.90;;;;;;4974370;28;20027;-55
2022/06/17 07:23:16;;;;;;;13.80;2.72;;;28.40;99.90;;;;;;4974821;28;20050;-55
2022/06/17 07:25:43;;;;;;;16.25;4.72;;;28.40;99.90;;;;;;4973515;28;20098;-55
2022/06/17 07:28:14;;;;;;;17.33;4.50;;;28.40;99.90;;;;;;4941191;28;20359;-55
2022/06/17 07:30:40;;;;;;;7.32;2.15;;;28.50;99.90;;;;;;4974376;28;20418;-55
2022/06/17 07:33:05;;;;;;;14.93;3.13;;;28.50;99.90;;;;;;4974418;28;20030;-54
2022/06/17 07:35:31;;;;;;;15.70;5.80;;;28.50;99.90;;;;;;4974376;28;20403;-54
2022/06/17 07:40:47;;;;;;;12.70;3.63;;;28.50;99.90;;;;;;4974539;28;20038;-54
2022/06/17 07:43:14;;;;;;;21.85;4.35;;;28.50;99.90;;;;;;4974464;28;20030;-55
2022/06/17 07:45:40;;;;;;;13.82;2.50;;;28.50;99.90;;;;;;4974169;28;20043;-54
2022/06/17 07:48:07;;;;;;;12.48;3.05;;;28.40;99.90;;;;;;4974146;28;20164;-55
2022/06/17 07:50:33;;;;;;;18.17;3.47;;;28.40;99.90;;;;;;4973917;28;20027;-55
2022/06/17 07:52:59;;;;;;;16.05;3.50;;;28.30;99.90;;;;;;4973908;28;20031;-55
2022/06/17 07:55:25;;;;;;;18.17;3.20;;;28.30;99.90;;;;;;4974061;28;20037;-55
2022/06/17 07:57:52;;;;;;;12.93;2.90;;;28.30;99.90;;;;;;4956901;28;20123;-55
2022/06/17 08:00:21;;;;;;;14.15;4.47;;;28.20;99.90;;;;;;4974020;28;20034;-55
2022/06/17 08:02:47;;;;;;;13.20;2.83;;;28.10;99.90;;;;;;4973837;28;20019;-54
2022/06/17 08:05:13;;;;;;;11.45;2.47;;;28.10;99.90;;;;;;4973833;28;20041;-55
2022/06/17 08:07:39;;;;;;;12.77;3.58;;;28.20;99.90;;;;;;4956337;28;20031;-54
2022/06/17 08:10:05;;;;;;;12.27;3.70;;;28.20;99.90;;;;;;4973653;28;20027;-55
2022/06/17 08:12:31;;;;;;;10.13;2.85;;;28.20;99.90;;;;;;4973906;28;20023;-55
2022/06/17 08:14:57;;;;;;;10.32;4.05;;;28.20;99.90;;;;;;4973689;28;20471;-56
2022/06/17 08:17:24;;;;;;;13.50;3.67;;;28.20;99.90;;;;;;4973835;28;20102;-55
2022/06/17 08:19:55;;;;;;;11.80;4.45;;;28.20;99.90;;;;;;4973511;28;20034;-55
2022/06/17 08:22:24;;;;;;;12.27;2.92;;;28.10;99.90;;;;;;4973883;28;20081;-55
2022/06/17 08:24:50;;;;;;;15.52;3.15;;;28.10;99.90;;;;;;4973547;28;20059;-55
2022/06/17 08:27:16;;;;;;;18.23;3.00;;;28.10;99.90;;;;;;4956253;28;20054;-55
2022/06/17 08:29:42;;;;;;;13.43;2.15;;;28.10;99.90;;;;;;4973250;28;20513;-55
2022/06/17 08:34:52;;;;;;;11.18;3.35;;;28.20;99.90;;;;;;4973465;28;20111;-55
2022/06/17 08:37:18;;;;;;;14.55;3.13;;;28.20;99.90;;;;;;4973221;28;20464;-55
2022/06/17 08:39:46;;;;;;;11.35;3.00;;;28.30;99.90;;;;;;4973190;28;20041;-55
2022/06/17 08:42:43;;;;;;;13.38;2.90;;;28.30;99.90;;;;;;4973139;28;20019;-56
2022/06/17 08:45:28;;;;;;;12.63;3.38;;;28.30;99.90;;;;;;4973093;28;20043;-55
2022/06/17 08:48:03;;;;;;;11.13;2.95;;;28.30;99.90;;;;;;4973098;28;20427;-55
2022/06/17 08:50:44;;;;;;;12.82;2.80;;;28.30;99.90;;;;;;4973093;28;20100;-56
2022/06/17 08:53:21;;;;;;;10.23;3.00;;;28.40;99.90;;;;;;4972962;28;20023;-55
2022/06/17 08:56:02;;;;;;;11.43;2.30;;;28.40;99.90;;;;;;4972869;28;20027;-56
2022/06/17 08:58:42;;;;;;;12.30;3.55;;;28.40;99.90;;;;;;4972843;28;20033;-56
2022/06/17 09:01:29;;;;;;;14.38;3.17;;;28.40;99.90;;;;;;4972969;28;20026;-56
2022/06/17 09:04:15;;;;;;;11.68;3.45;;;28.50;99.90;;;;;;4972729;28;20094;-56
2022/06/17 09:07:06;;;;;;;11.25;3.00;;;28.50;99.90;;;;;;4972877;28;20027;-56
2022/06/17 09:09:55;;;;;;;13.13;3.42;;;28.50;99.90;;;;;;4955107;28;20398;-55
2022/06/17 09:12:29;;;;;;;14.20;3.03;;;28.50;99.90;;;;;;4919614;28;20394;-56
2022/06/17 09:15:01;;;;;;;15.38;3.25;;;28.60;99.90;;;;;;4972693;28;20050;-56
2022/06/17 09:17:39;;;;;;;12.68;2.53;;;28.60;99.90;;;;;;4972417;28;20104;-55
2022/06/17 09:20:08;;;;;;;14.73;3.42;;;28.70;99.90;;;;;;4972442;28;20022;-55
2022/06/17 09:22:39;;;;;;;13.00;2.42;;;28.70;99.90;;;;;;4972532;28;20031;-56
2022/06/17 09:25:08;;;;;;;9.18;2.80;;;28.80;99.90;;;;;;4972496;28;20034;-56
2022/06/17 09:27:41;;;;;;;10.57;2.20;;;28.90;99.90;;;;;;4972401;28;20034;-56
2022/06/17 09:30:16;;;;;;;8.80;2.47;;;28.90;99.90;;;;;;4972365;28;20038;-56
2022/06/17 09:32:42;;;;;;;10.43;3.17;;;28.90;99.90;;;;;;4972209;28;20102;-56
2022/06/17 09:35:27;;;;;;;12.00;2.67;;;29.00;99.90;;;;;;4972136;28;20458;-56
2022/06/17 09:38:10;;;;;;;12.70;3.47;;;29.00;99.90;;;;;;4972459;28;20023;-56
2022/06/17 09:40:44;;;;;;;11.00;2.90;;;29.10;99.90;;;;;;4972338;28;20034;-56
2022/06/17 09:43:19;;;;;;;11.18;2.55;;;29.10;99.90;;;;;;4972062;28;20023;-57
2022/06/17 09:45:49;;;;;;;11.80;3.38;;;29.00;99.90;;;;;;4971920;28;20038;-55
2022/06/17 09:48:32;;;;;;;11.43;2.90;;;29.10;99.90;;;;;;4971476;28;20430;-55
2022/06/17 09:51:24;;;;;;;14.20;2.90;;;29.10;99.90;;;;;;4971916;28;20027;-56
2022/06/17 09:54:06;;;;;;;8.77;2.90;;;29.10;99.90;;;;;;4956509;28;20038;-56
2022/06/17 09:56:45;;;;;;;8.18;2.42;;;29.10;99.90;;;;;;4972074;28;20110;-56
2022/06/17 09:59:15;;;;;;;10.82;3.78;;;29.10;99.90;;;;;;4971907;28;20042;-56
2022/06/17 10:01:42;;;;;;;9.52;2.63;;;29.10;99.90;;;;;;4967078;28;20070;-56
2022/06/17 10:04:10;;;;;;;8.50;3.00;;;29.10;99.90;;;;;;4932123;29;20051;-56
2022/06/17 10:06:47;;;;;;;19.90;3.45;;;29.20;99.90;;;;;;4949686;29;20376;-56
2022/06/17 10:09:31;;;;;;;14.90;3.13;;;29.20;99.90;;;;;;4951647;28;20607;-56
2022/06/17 10:12:10;;;;;;;8.45;2.72;;;29.20;99.90;;;;;;4950247;28;20083;-56
2022/06/17 10:15:08;;;;;;;8.90;2.92;;;29.30;99.90;;;;;;4949123;28;20438;-57
2022/06/17 10:20:52;;;;;;;12.20;3.00;;;29.20;99.90;;;;;;4945345;29;20069;-55
2022/06/17 10:23:36;;;;;;;12.25;3.35;;;29.30;99.90;;;;;;4947227;29;20027;-55
2022/06/17 10:26:14;;;;;;;12.77;3.08;;;29.10;99.90;;;;;;4949152;29;20123;-55
2022/06/17 10:29:03;;;;;;;18.25;10.10;;;29.20;99.90;;;;;;4952553;29;20030;-56
2022/06/17 10:31:47;;;;;;;13.75;5.68;;;29.30;99.90;;;;;;4952587;29;20042;-56
2022/06/17 10:34:48;;;;;;;11.13;3.28;;;29.40;99.90;;;;;;4952471;29;20035;-56
2022/06/17 10:37:15;;;;;;;15.15;5.35;;;29.50;99.90;;;;;;4948894;29;20043;-55
2022/06/17 10:39:43;;;;;;;16.27;6.97;;;29.60;99.90;;;;;;4952454;29;20479;-55
2022/06/17 10:42:15;;;;;;;10.95;3.20;;;29.70;99.90;;;;;;4952357;29;20111;-52
2022/06/17 10:44:44;;;;;;;11.80;5.25;;;29.70;99.90;;;;;;4952348;29;20047;-54
2022/06/17 10:47:29;;;;;;;11.50;2.97;;;29.80;99.90;;;;;;4945831;29;20043;-52
2022/06/17 10:50:01;;;;;;;11.45;2.47;;;29.90;99.90;;;;;;4951375;29;20033;-52
2022/06/17 10:52:39;;;;;;;7.15;2.70;;;29.80;99.90;;;;;;4952193;29;20077;-52
2022/06/17 10:55:15;;;;;;;10.23;2.53;;;29.60;99.90;;;;;;4952568;29;20020;-52
2022/06/17 10:58:10;;;;;;;18.07;3.83;;;29.60;99.90;;;;;;4950411;28;20035;-52
2022/06/17 11:00:58;;;;;;;10.93;2.13;;;29.70;99.90;;;;;;4952826;29;20035;-53
2022/06/17 11:03:26;;;;;;;6.30;2.33;;;29.70;99.90;;;;;;4948164;29;20039;-52
2022/06/17 11:06:23;;;;;;;9.65;3.03;;;29.80;99.90;;;;;;4953086;28;20111;-52
2022/06/17 11:08:49;;;;;;;7.13;2.20;;;30.00;99.90;;;;;;4939843;29;20039;-53
2022/06/17 11:14:05;;;;;;;9.02;2.65;;;30.00;99.90;;;;;;4955711;29;20086;-53
2022/06/17 11:16:42;;;;;;;10.98;3.20;;;30.10;99.90;;;;;;4955486;29;20110;-54
2022/06/17 11:19:16;;;;;;;7.00;2.40;;;30.00;99.90;;;;;;4955334;29;20030;-54
2022/06/17 11:21:45;;;;;;;10.48;3.90;;;30.00;99.90;;;;;;4955118;29;20376;-53
2022/06/17 11:24:31;;;;;;;11.50;3.67;;;30.00;99.90;;;;;;4953438;29;20335;-53
2022/06/17 11:27:24;;;;;;;8.52;4.25;;;30.00;99.90;;;;;;4952775;29;20027;-56
2022/06/17 11:29:53;;;;;;;12.10;2.78;;;30.10;99.90;;;;;;4955469;28;20075;-53
2022/06/17 11:32:24;;;;;;;9.52;3.58;;;30.10;99.90;;;;;;4955239;28;20233;-54
2022/06/17 11:34:59;;;;;;;7.88;3.15;;;30.20;99.90;;;;;;4955394;29;20147;-56
2022/06/17 11:37:32;;;;;;;10.32;2.53;;;30.20;99.90;;;;;;4955097;28;20019;-56
2022/06/17 11:40:10;;;;;;;12.80;3.05;;;30.10;99.90;;;;;;4954399;29;20031;-57
2022/06/17 11:42:54;;;;;;;6.45;1.85;;;30.20;99.90;;;;;;4951120;29;20035;-56
2022/06/17 11:45:32;;;;;;;11.95;2.92;;;30.20;99.90;;;;;;4954814;29;20459;-59
2022/06/17 11:48:20;;;;;;;8.98;2.38;;;30.20;99.90;;;;;;4954733;29;20035;-55
2022/06/17 11:51:14;;;;;;;10.30;3.22;;;30.20;99.90;;;;;;4939739;29;20532;-55
2022/06/17 11:53:51;;;;;;;8.13;2.45;;;30.30;99.90;;;;;;4933853;29;20040;-55
2022/06/17 11:56:31;;;;;;;8.37;2.57;;;30.30;99.90;;;;;;4934207;29;20043;-55
2022/06/17 11:59:06;;;;;;;8.60;2.50;;;30.30;99.90;;;;;;4934342;29;20024;-55
2022/06/17 12:01:31;;;;;;;35.58;4.05;;;30.30;99.90;;;;;;4934211;29;20038;-55
2022/06/17 12:03:57;;;;;;;14.00;3.63;;;30.30;99.90;;;;;;4935984;29;20480;-55
2022/06/17 12:06:29;;;;;;;13.48;4.07;;;30.40;99.90;;;;;;4954625;29;20058;-55
2022/06/17 12:09:16;;;;;;;10.13;4.03;;;30.30;99.90;;;;;;4954383;29;20503;-54
2022/06/17 12:11:56;;;;;;;12.13;5.43;;;30.20;99.90;;;;;;4954003;28;20070;-54
2022/06/17 12:14:56;;;;;;;13.85;3.60;;;30.20;99.90;;;;;;4954665;29;20106;-55
2022/06/17 12:17:23;;;;;;;7.93;2.90;;;30.30;99.90;;;;;;4954737;29;20055;-54
2022/06/17 12:19:48;;;;;;;17.23;9.23;;;30.30;99.90;;;;;;4954369;29;20027;-54
2022/06/17 12:22:40;;;;;;;35.38;24.95;;;30.30;99.90;;;;;;4954113;29;20034;-54
2022/06/17 12:25:38;;;;;;;9.38;6.05;;;30.20;99.90;;;;;;4936947;29;20050;-55
2022/06/17 12:28:28;;;;;;;11.18;4.65;;;30.20;99.90;;;;;;4954139;29;20031;-55
2022/06/17 12:31:05;;;;;;;11.20;3.17;;;30.10;99.90;;;;;;4954284;29;20093;-55
2022/06/17 12:33:40;;;;;;;;;;;30.10;99.90;;;;;;4954543;29;20059;-54
2022/06/17 12:36:22;;;;;;;10.23;3.50;;;30.00;99.90;;;;;;4954033;29;20342;-54
2022/06/17 12:38:58;;;;;;;17.02;4.45;;;30.00;99.90;;;;;;4954014;29;20027;-54
2022/06/17 12:41:35;;;;;;;9.65;4.20;;;29.90;99.90;;;;;;4954136;29;20118;-55
2022/06/17 12:44:15;;;;;;;13.20;4.40;;;29.90;99.90;;;;;;4953867;29;20023;-55
2022/06/17 12:46:47;;;;;;;8.55;3.10;;;29.80;99.90;;;;;;4953745;29;20487;-55
2022/06/17 12:53:14;;;;;;;16.75;5.93;;;29.70;99.90;;;;;;4953965;29;20037;-55
2022/06/17 12:55:49;;;;;;;13.35;4.90;;;29.80;99.90;;;;;;4950958;29;20031;-55
2022/06/17 12:58:31;;;;;;;13.10;6.35;;;29.80;99.90;;;;;;4953733;29;20491;-55
2022/06/17 13:01:03;;;;;;;12.07;5.15;;;29.90;99.90;;;;;;4953558;29;20105;-55
2022/06/17 13:03:53;;;;;;;13.60;6.07;;;30.00;99.90;;;;;;4953369;29;20062;-55
2022/06/17 13:06:34;;;;;;;12.20;3.70;;;30.00;99.90;;;;;;4953562;29;20035;-55
2022/06/17 13:09:06;;;;;;;12.30;3.60;;;30.00;99.90;;;;;;4953457;29;20102;-55
2022/06/17 13:11:43;;;;;;;6.35;2.80;;;30.00;99.90;;;;;;4953638;29;20024;-55
2022/06/17 13:14:28;;;;;;;14.40;3.20;;;30.00;99.90;;;;;;4953228;29;20028;-56
2022/06/17 13:17:05;;;;;;;11.23;3.28;;;29.80;99.90;;;;;;4953600;29;20027;-55
2022/06/17 13:19:59;;;;;;;9.20;2.90;;;29.70;99.90;;;;;;4953613;29;20031;-55
2022/06/17 13:22:34;;;;;;;9.38;2.97;;;29.80;99.90;;;;;;4952558;28;20035;-55
2022/06/17 13:25:22;;;;;;;9.43;3.13;;;29.80;99.90;;;;;;4953429;29;20035;-55
2022/06/17 13:27:57;;;;;;;8.38;2.75;;;29.80;99.90;;;;;;4936516;29;20019;-56
2022/06/17 13:30:27;;;;;;;10.48;2.47;;;29.80;99.90;;;;;;4953405;29;20039;-55
2022/06/17 13:33:39;;;;;;;9.65;2.95;;;29.90;99.90;;;;;;4953506;29;20447;-55
2022/06/17 13:36:13;;;;;;;10.73;3.53;;;29.90;99.90;;;;;;4930993;29;20042;-55